createdAt,value
2018-09-12T00:01:55.498Z,1.00
2018-09-12T00:04:26.491Z,2.00
2018-09-12T00:06:57.837Z,2.67
2018-09-12T00:09:28.820Z,2.07
2018-09-12T00:11:59.802Z,1.33
2018-09-12T00:14:37.618Z,3.23
2018-09-12T00:17:08.592Z,8.00
2018-09-12T00:19:39.566Z,5.07
2018-09-12T00:22:10.521Z,4.27
2018-09-12T00:24:41.548Z,2.20
2018-09-12T00:27:12.522Z,5.10
2018-09-12T00:29:43.499Z,1.43
2018-09-12T00:32:14.489Z,2.47
2018-09-12T00:34:45.464Z,2.80
2018-09-12T00:37:16.437Z,2.30
2018-09-12T00:39:47.407Z,1.70
2018-09-12T00:42:18.374Z,2.00
2018-09-12T00:44:49.346Z,2.40
2018-09-12T00:47:20.347Z,3.90
2018-09-12T00:49:51.373Z,1.77
2018-09-12T00:52:22.334Z,1.67
2018-09-12T00:54:53.297Z,3.90
2018-09-12T00:57:24.296Z,3.57
2018-09-12T00:59:55.324Z,2.30
2018-09-12T01:02:26.363Z,1.70
2018-09-12T01:04:57.309Z,1.83
2018-09-12T01:07:28.336Z,1.63
2018-09-12T01:09:59.323Z,2.27
2018-09-12T01:12:30.293Z,2.30
2018-09-12T01:15:01.283Z,1.30
2018-09-12T01:17:32.256Z,1.60
2018-09-12T01:20:03.254Z,1.70
2018-09-12T01:22:34.221Z,1.50
2018-09-12T01:25:05.188Z,1.80
2018-09-12T01:27:36.280Z,1.80
2018-09-12T01:30:09.214Z,1.60
2018-09-12T01:32:40.188Z,1.93
2018-09-12T01:35:11.141Z,2.23
2018-09-12T01:37:42.121Z,2.30
2018-09-12T01:40:13.225Z,1.00
2018-09-12T01:42:44.573Z,1.30
2018-09-12T01:45:17.258Z,1.60
2018-09-12T01:47:48.507Z,1.40
2018-09-12T01:50:19.462Z,1.50
2018-09-12T01:52:50.477Z,1.37
2018-09-12T01:55:21.452Z,1.33
2018-09-12T01:57:52.413Z,1.83
2018-09-12T02:00:29.213Z,1.40
2018-09-12T02:03:00.183Z,1.20
2018-09-12T02:05:31.153Z,1.40
2018-09-12T02:08:02.133Z,0.90
2018-09-12T02:10:33.088Z,1.83
2018-09-12T02:13:04.058Z,1.47
2018-09-12T02:15:35.021Z,1.40
2018-09-12T02:18:06.009Z,1.23
2018-09-12T02:20:36.978Z,1.13
2018-09-12T02:23:07.944Z,1.30
2018-09-12T02:25:38.914Z,2.27
2018-09-12T02:28:09.879Z,2.33
2018-09-12T02:30:40.893Z,1.10
2018-09-12T02:33:11.844Z,1.20
2018-09-12T02:35:48.594Z,0.70
2018-09-12T02:38:19.566Z,2.10
2018-09-12T02:40:50.599Z,2.70
2018-09-12T02:43:21.564Z,1.00
2018-09-12T02:45:52.533Z,1.57
2018-09-12T02:48:23.510Z,1.33
2018-09-12T02:50:54.494Z,0.80
2018-09-12T02:53:25.470Z,1.20
2018-09-12T02:55:56.446Z,1.20
2018-09-12T02:58:27.420Z,1.00
2018-09-12T03:00:58.406Z,0.87
2018-09-12T03:03:29.395Z,0.97
2018-09-12T03:06:00.370Z,1.00
2018-09-12T03:08:31.358Z,1.27
2018-09-12T03:11:02.349Z,0.80
2018-09-12T03:13:33.535Z,1.10
2018-09-12T03:16:04.523Z,0.87
2018-09-12T03:18:35.538Z,0.87
2018-09-12T03:21:06.574Z,0.90
2018-09-12T03:23:37.475Z,1.20
2018-09-12T03:26:08.454Z,0.93
2018-09-12T03:28:39.430Z,0.97
2018-09-12T03:31:10.416Z,1.30
2018-09-12T03:33:41.381Z,0.97
2018-09-12T03:36:12.478Z,0.87
2018-09-12T03:38:43.443Z,1.00
2018-09-12T03:41:14.453Z,1.47
2018-09-12T03:43:45.433Z,1.20
2018-09-12T03:46:16.411Z,0.70
2018-09-12T03:48:47.590Z,0.90
2018-09-12T03:51:18.473Z,0.83
2018-09-12T03:53:49.441Z,1.07
2018-09-12T03:56:20.425Z,0.93
2018-09-12T03:58:51.388Z,1.87
2018-09-12T04:01:22.389Z,0.77
2018-09-12T04:03:53.353Z,1.00
2018-09-12T04:06:24.316Z,0.80
2018-09-12T04:08:55.288Z,1.03
2018-09-12T04:11:26.272Z,1.30
2018-09-12T04:13:57.236Z,0.87
2018-09-12T04:16:28.205Z,0.80
2018-09-12T04:18:59.227Z,1.17
2018-09-12T04:21:30.206Z,0.97
2018-09-12T04:24:01.179Z,0.90
2018-09-12T04:26:32.149Z,1.03
2018-09-12T04:29:03.113Z,0.80
2018-09-12T04:31:34.073Z,1.27
2018-09-12T04:34:05.054Z,1.03
2018-09-12T04:36:36.039Z,0.80
2018-09-12T04:39:07.010Z,0.80
2018-09-12T04:41:38.006Z,0.67
2018-09-12T04:44:08.970Z,0.80
2018-09-12T04:46:39.998Z,1.10
2018-09-12T04:49:11.017Z,0.80
2018-09-12T04:51:41.985Z,0.80
2018-09-12T04:54:12.969Z,0.53
2018-09-12T04:56:43.938Z,0.70
2018-09-12T04:59:14.905Z,0.70
2018-09-12T05:01:45.874Z,0.90
2018-09-12T05:04:16.843Z,0.80
2018-09-12T05:06:47.809Z,0.73
2018-09-12T05:09:18.781Z,0.50
2018-09-12T05:11:49.754Z,0.60
2018-09-12T05:14:20.732Z,0.77
2018-09-12T05:16:51.705Z,0.80
2018-09-12T05:19:22.665Z,0.90
2018-09-12T05:21:53.637Z,0.70
2018-09-12T05:24:24.600Z,0.80
2018-09-12T05:26:55.584Z,0.70
2018-09-12T05:29:26.587Z,0.77
2018-09-12T05:31:57.589Z,0.57
2018-09-12T05:34:28.556Z,1.07
2018-09-12T05:36:59.525Z,0.87
2018-09-12T05:39:30.479Z,0.60
2018-09-12T05:42:01.467Z,0.70
2018-09-12T05:44:33.235Z,0.60
2018-09-12T05:47:04.213Z,0.90
2018-09-12T05:49:35.185Z,0.83
2018-09-12T05:52:06.154Z,0.70
2018-09-12T05:54:37.140Z,0.90
2018-09-12T05:57:08.108Z,0.43
2018-09-12T05:59:39.069Z,0.73
2018-09-12T06:02:10.053Z,0.80
2018-09-12T06:04:41.024Z,1.03
2018-09-12T06:07:12.163Z,0.70
2018-09-12T06:09:42.981Z,0.70
2018-09-12T06:12:14.009Z,0.73
2018-09-12T06:14:44.969Z,0.80
2018-09-12T06:17:15.934Z,0.70
2018-09-12T06:19:46.915Z,0.90
2018-09-12T06:22:17.901Z,0.73
2018-09-12T06:24:48.873Z,0.87
2018-09-12T06:27:19.848Z,0.67
2018-09-12T06:29:50.837Z,0.80
2018-09-12T06:32:21.813Z,0.73
2018-09-12T06:34:52.780Z,0.93
2018-09-12T06:37:23.758Z,0.70
2018-09-12T06:39:54.757Z,1.13
2018-09-12T06:42:25.738Z,0.50
2018-09-12T06:44:56.730Z,0.90
2018-09-12T06:47:27.702Z,0.60
2018-09-12T06:49:58.681Z,0.57
2018-09-12T06:52:29.663Z,0.70
2018-09-12T06:55:00.729Z,0.40
2018-09-12T06:57:31.694Z,0.90
2018-09-12T07:00:02.654Z,0.60
2018-09-12T07:02:33.629Z,0.77
2018-09-12T07:05:04.604Z,0.80
2018-09-12T07:07:35.628Z,0.90
2018-09-12T07:10:06.571Z,0.60
2018-09-12T07:12:37.550Z,0.80
2018-09-12T07:15:08.519Z,0.60
2018-09-12T07:17:39.501Z,0.63
2018-09-12T07:20:10.471Z,0.50
2018-09-12T07:22:41.466Z,0.70
2018-09-12T07:25:12.438Z,0.70
2018-09-12T07:27:43.584Z,0.70
2018-09-12T07:30:14.416Z,0.50
2018-09-12T07:32:45.401Z,0.70
2018-09-12T07:35:16.368Z,0.67
2018-09-12T07:37:47.349Z,0.60
2018-09-12T07:40:18.673Z,0.60
2018-09-12T07:42:49.649Z,0.60
2018-09-12T07:45:20.631Z,0.57
2018-09-12T07:47:51.608Z,0.50
2018-09-12T07:50:22.753Z,0.70
2018-09-12T07:52:53.757Z,0.67
2018-09-12T07:55:25.450Z,0.40
2018-09-12T07:57:56.429Z,0.50
2018-09-12T08:00:27.421Z,1.17
2018-09-12T08:02:58.395Z,0.60
2018-09-12T08:05:29.391Z,0.60
2018-09-12T08:08:00.353Z,0.73
2018-09-12T08:10:31.697Z,0.50
2018-09-12T08:13:02.649Z,0.80
2018-09-12T08:15:33.663Z,0.57
2018-09-12T08:18:04.625Z,0.60
2018-09-12T08:20:35.621Z,0.80
2018-09-12T08:23:06.582Z,0.50
2018-09-12T08:25:37.589Z,0.70
2018-09-12T08:28:08.563Z,0.50
2018-09-12T08:30:39.541Z,0.73
2018-09-12T08:33:10.524Z,0.77
2018-09-12T08:35:41.512Z,0.93
2018-09-12T08:38:12.490Z,0.90
2018-09-12T08:40:43.472Z,0.83
2018-09-12T08:43:14.437Z,1.20
2018-09-12T08:45:45.659Z,2.53
2018-09-12T08:48:16.630Z,0.97
2018-09-12T08:50:49.182Z,1.43
2018-09-12T08:53:20.705Z,0.90
2018-09-12T08:55:52.366Z,1.50
2018-09-12T08:58:23.321Z,1.10
2018-09-12T09:00:54.336Z,1.40
2018-09-12T09:03:25.293Z,2.10
2018-09-12T09:05:56.353Z,0.73
2018-09-12T09:08:27.393Z,0.60
2018-09-12T09:10:58.373Z,1.00
2018-09-12T09:13:29.370Z,0.77
2018-09-12T09:16:00.366Z,1.63
2018-09-12T09:18:31.333Z,0.60
2018-09-12T09:21:02.324Z,3.67
2018-09-12T09:23:33.323Z,1.53
2018-09-12T09:26:05.085Z,0.90
2018-09-12T09:28:36.047Z,3.27
2018-09-12T09:31:07.054Z,1.07
2018-09-12T09:33:38.033Z,1.90
2018-09-12T09:36:09.032Z,1.90
2018-09-12T09:38:40.004Z,2.03
2018-09-12T09:41:11.010Z,3.80
2018-09-12T09:43:41.986Z,3.77
2018-09-12T09:46:12.993Z,4.20
2018-09-12T09:48:44.259Z,4.63
2018-09-12T09:51:15.248Z,7.13
2018-09-12T09:53:46.261Z,2.53
2018-09-12T09:56:17.337Z,2.43
2018-09-12T09:58:48.637Z,2.50
2018-09-12T10:01:25.401Z,2.80
2018-09-12T10:04:02.157Z,2.60
2018-09-12T10:06:40.925Z,2.63
2018-09-12T10:09:17.757Z,5.60
2018-09-12T10:11:48.811Z,3.67
2018-09-12T10:14:19.734Z,5.40
2018-09-12T10:16:50.705Z,3.27
2018-09-12T10:19:21.695Z,3.30
2018-09-12T10:21:52.731Z,3.10
2018-09-12T10:24:23.791Z,3.50
2018-09-12T10:26:54.702Z,3.40
2018-09-12T10:29:25.665Z,3.57
2018-09-12T10:31:56.652Z,4.57
2018-09-12T10:34:27.613Z,3.17
2018-09-12T10:36:58.615Z,3.47
2018-09-12T10:39:30.449Z,3.40
2018-09-12T10:42:01.446Z,5.20
2018-09-12T10:44:32.405Z,4.83
2018-09-12T10:47:03.390Z,4.37
2018-09-12T10:49:34.371Z,3.50
2018-09-12T10:52:05.390Z,5.20
2018-09-12T10:54:36.500Z,3.70
2018-09-12T10:57:07.574Z,4.37
2018-09-12T10:59:38.541Z,4.20
2018-09-12T11:02:09.651Z,4.80
2018-09-12T11:04:40.621Z,4.43
2018-09-12T11:07:11.712Z,4.00
2018-09-12T11:09:42.740Z,3.53
2018-09-12T11:12:13.689Z,5.73
2018-09-12T11:14:44.666Z,5.40
2018-09-12T11:17:15.673Z,3.97
2018-09-12T11:19:46.699Z,2.40
2018-09-12T11:22:17.881Z,2.03
2018-09-12T11:24:48.882Z,3.90
2018-09-12T11:27:20.055Z,1.80
2018-09-12T11:29:51.053Z,1.93
2018-09-12T11:32:22.054Z,2.23
2018-09-12T11:34:53.017Z,2.40
2018-09-12T11:37:24.019Z,1.70
2018-09-12T11:39:55.050Z,2.00
2018-09-12T11:42:26.214Z,1.70
2018-09-12T11:44:57.224Z,2.27
2018-09-12T11:47:28.200Z,1.90
2018-09-12T11:50:00.754Z,2.27
2018-09-12T11:52:31.993Z,2.03
2018-09-12T11:55:02.964Z,1.93
2018-09-12T11:57:33.978Z,2.50
2018-09-12T12:00:04.988Z,2.47
2018-09-12T12:02:36.028Z,2.57
2018-09-12T12:05:07.006Z,3.93
2018-09-12T12:07:37.985Z,3.00
2018-09-12T12:10:09.050Z,3.07
2018-09-12T12:12:40.429Z,2.87
2018-09-12T12:15:11.455Z,3.33
2018-09-12T12:17:42.376Z,3.00
2018-09-12T12:20:13.325Z,3.77
2018-09-12T12:22:44.270Z,3.37
2018-09-12T12:25:15.218Z,2.93
2018-09-12T12:27:46.262Z,3.57
2018-09-12T12:30:17.239Z,2.73
2018-09-12T12:32:48.222Z,3.90
2018-09-12T12:35:19.642Z,3.43
2018-09-12T12:37:51.048Z,3.63
2018-09-12T12:46:00.058Z,3.37
2018-09-12T12:48:37.114Z,3.60
2018-09-12T12:51:14.395Z,3.80
2018-09-12T12:53:51.671Z,3.33
2018-09-12T12:56:22.606Z,3.80
2018-09-12T12:58:53.620Z,4.57
2018-09-12T13:01:24.557Z,3.43
2018-09-12T13:03:55.521Z,3.47
2018-09-12T13:06:26.549Z,3.20
2018-09-12T13:08:57.529Z,4.40
2018-09-12T13:11:28.526Z,3.60
2018-09-12T13:14:35.505Z,3.23
2018-09-12T13:17:06.415Z,4.80
2018-09-12T13:19:37.369Z,6.87
2018-09-12T13:22:08.344Z,3.83
2018-09-12T13:24:39.306Z,4.13
2018-09-12T13:27:10.294Z,5.50
2018-09-12T13:29:41.183Z,4.40
2018-09-12T13:32:12.185Z,4.70
2018-09-12T13:34:43.144Z,6.70
2018-09-12T13:37:14.074Z,4.50
2018-09-12T13:39:45.014Z,5.80
2018-09-12T13:42:15.933Z,4.83
2018-09-12T13:44:46.875Z,4.20
2018-09-12T13:47:17.790Z,6.60
2018-09-12T13:49:48.745Z,8.30
2018-09-12T13:52:19.714Z,4.20
2018-09-12T13:54:50.650Z,4.87
2018-09-12T13:57:21.565Z,5.17
2018-09-12T13:59:52.531Z,4.60
2018-09-12T14:02:23.474Z,5.33
2018-09-12T14:04:54.430Z,6.40
2018-09-12T14:07:25.372Z,5.90
2018-09-12T14:09:56.330Z,7.27
2018-09-12T14:12:27.286Z,7.77
2018-09-12T14:14:58.270Z,7.83
2018-09-12T14:17:29.904Z,9.73
2018-09-12T14:20:00.882Z,7.67
2018-09-12T14:22:31.936Z,6.83
2018-09-12T14:25:02.935Z,7.00
2018-09-12T14:27:34.086Z,6.33
2018-09-12T14:30:05.229Z,6.97
2018-09-12T14:32:36.161Z,6.43
2018-09-12T14:35:07.089Z,8.90
2018-09-12T14:37:38.034Z,5.77
2018-09-12T14:40:08.977Z,7.17
2018-09-12T14:42:39.965Z,8.97
2018-09-12T14:45:11.034Z,6.63
2018-09-12T14:47:41.886Z,7.00
2018-09-12T14:50:12.817Z,7.10
2018-09-12T14:52:43.762Z,7.10
2018-09-12T14:55:14.681Z,6.97
2018-09-12T14:57:45.683Z,6.23
2018-09-12T15:00:32.423Z,7.67
2018-09-12T15:03:03.356Z,6.03
2018-09-12T15:05:34.309Z,6.90
2018-09-12T15:10:08.065Z,8.03
2018-09-12T15:12:39.012Z,7.03
2018-09-12T15:15:09.937Z,6.67
2018-09-12T15:17:41.380Z,7.20
2018-09-12T15:20:12.648Z,8.00
2018-09-12T15:22:43.849Z,7.17
2018-09-12T15:25:15.334Z,8.93
2018-09-12T15:27:46.266Z,7.67
2018-09-12T15:30:17.213Z,8.70
2018-09-12T15:32:48.264Z,7.93
2018-09-12T15:35:19.285Z,10.97
2018-09-12T15:37:50.258Z,9.07
2018-09-12T15:40:21.205Z,9.13
2018-09-12T15:42:52.205Z,7.00
2018-09-12T15:45:23.159Z,7.23
2018-09-12T15:47:54.142Z,6.77
2018-09-12T15:50:25.093Z,6.97
2018-09-12T15:52:56.047Z,7.27
2018-09-12T15:55:26.995Z,5.93
2018-09-12T15:57:59.030Z,6.20
2018-09-12T16:00:30.005Z,4.70
2018-09-12T16:03:00.939Z,4.60
2018-09-12T16:05:32.213Z,7.23
2018-09-12T16:08:03.156Z,7.33
2018-09-12T16:10:34.172Z,6.00
2018-09-12T16:13:05.097Z,7.27
2018-09-12T16:15:36.109Z,6.40
2018-09-12T16:18:07.085Z,8.63
2018-09-12T16:20:38.033Z,5.83
2018-09-12T16:23:10.050Z,7.97
2018-09-12T16:25:41.017Z,7.00
2018-09-12T16:28:11.953Z,5.93
2018-09-12T16:30:42.887Z,6.97
2018-09-12T16:33:13.836Z,6.50
2018-09-12T16:35:44.771Z,7.40
2018-09-12T16:38:15.716Z,9.47
2018-09-12T16:40:46.672Z,8.53
2018-09-12T16:43:17.728Z,7.67
2018-09-12T16:45:48.648Z,11.60
2018-09-12T16:48:19.596Z,8.33
2018-09-12T16:50:50.571Z,9.57
2018-09-12T16:53:21.504Z,8.60
2018-09-12T16:55:52.500Z,10.03
2018-09-12T16:58:23.438Z,8.40
2018-09-12T17:00:54.369Z,8.10
2018-09-12T17:03:25.325Z,8.27
2018-09-12T17:05:56.369Z,6.87
2018-09-12T17:08:27.294Z,8.43
2018-09-12T17:10:58.253Z,7.43
2018-09-12T17:13:29.184Z,5.87
2018-09-12T17:16:00.137Z,6.20
2018-09-12T17:18:31.049Z,7.10
2018-09-12T17:21:02.218Z,7.67
2018-09-12T17:23:33.159Z,9.80
2018-09-12T17:26:04.169Z,7.93
2018-09-12T17:28:35.127Z,11.43
2018-09-12T17:31:06.068Z,8.43
2018-09-12T17:33:37.091Z,9.90
2018-09-12T17:36:08.013Z,7.70
2018-09-12T17:38:38.974Z,9.77
2018-09-12T17:41:09.923Z,8.60
2018-09-12T17:43:40.865Z,9.27
2018-09-12T17:46:11.790Z,9.63
2018-09-12T17:48:42.737Z,10.40
2018-09-12T17:51:13.666Z,6.00
2018-09-12T17:53:44.649Z,4.87
2018-09-12T17:56:15.593Z,4.47
2018-09-12T17:58:46.560Z,4.93
2018-09-12T18:01:17.488Z,5.73
2018-09-12T18:03:48.434Z,6.93
2018-09-12T18:06:19.392Z,3.53
2018-09-12T18:08:50.345Z,3.00
2018-09-12T18:11:21.361Z,2.87
2018-09-12T18:13:52.257Z,5.93
2018-09-12T18:16:23.214Z,3.03
2018-09-12T18:18:54.181Z,2.80
2018-09-12T18:21:25.128Z,1.90
2018-09-12T18:23:56.070Z,3.10
2018-09-12T18:26:27.027Z,1.63
2018-09-12T18:28:58.177Z,1.70
2018-09-12T18:34:16.754Z,3.77
2018-09-12T18:36:47.729Z,3.50
2018-09-12T18:39:18.710Z,2.73
2018-09-12T18:41:49.662Z,3.77
2018-09-12T18:44:20.633Z,4.97
2018-09-12T18:46:51.579Z,2.73
2018-09-12T18:49:22.539Z,3.10
2018-09-12T18:51:53.514Z,6.43
2018-09-12T18:54:24.470Z,8.50
2018-09-12T18:56:55.425Z,2.87
2018-09-12T18:59:26.414Z,3.90
2018-09-12T19:01:57.452Z,5.73
2018-09-12T19:04:28.402Z,6.73
2018-09-12T19:06:59.551Z,3.97
2018-09-12T19:09:30.381Z,4.00
2018-09-12T19:12:01.335Z,5.70
2018-09-12T19:14:32.297Z,4.27
2018-09-12T19:17:03.285Z,4.40
2018-09-12T19:19:34.232Z,4.10
2018-09-12T19:22:05.170Z,5.90
2018-09-12T19:24:36.228Z,5.53
2018-09-12T19:27:07.233Z,7.73
2018-09-12T19:29:38.177Z,6.77
2018-09-12T19:32:09.125Z,2.83
2018-09-12T19:34:40.090Z,6.00
2018-09-12T19:37:11.107Z,4.53
2018-09-12T19:39:42.165Z,4.67
2018-09-12T19:42:13.172Z,5.73
2018-09-12T19:44:44.172Z,2.83
2018-09-12T19:47:15.125Z,3.77
2018-09-12T19:49:46.117Z,2.80
2018-09-12T19:52:17.139Z,8.00
2018-09-12T19:54:48.113Z,2.50
2018-09-12T19:57:19.128Z,4.17
2018-09-12T19:59:50.176Z,3.13
2018-09-12T20:02:21.196Z,3.20
2018-09-12T20:04:52.147Z,7.13
2018-09-12T20:07:24.201Z,4.57
2018-09-12T20:09:55.053Z,3.47
2018-09-12T20:12:26.125Z,2.83
2018-09-12T20:14:57.070Z,3.07
2018-09-12T20:17:28.042Z,3.97
2018-09-12T20:19:59.000Z,5.33
2018-09-12T20:22:29.951Z,3.23
2018-09-12T20:25:00.905Z,4.10
2018-09-12T20:27:31.852Z,4.97
2018-09-12T20:30:02.832Z,6.10
2018-09-12T20:32:33.784Z,3.80
2018-09-12T20:35:04.755Z,17.13
2018-09-12T20:37:35.698Z,3.87
2018-09-12T20:40:06.652Z,11.03
2018-09-12T20:42:37.641Z,7.50
2018-09-12T20:45:08.618Z,7.50
2018-09-12T20:47:40.577Z,4.43
2018-09-12T20:50:11.613Z,2.27
2018-09-12T20:52:42.637Z,14.13
2018-09-12T20:55:13.638Z,6.40
2018-09-12T20:57:44.634Z,2.77
2018-09-12T21:00:15.696Z,6.13
2018-09-12T21:02:46.792Z,9.70
2018-09-12T21:05:17.784Z,5.23
2018-09-12T21:07:48.739Z,3.10
2018-09-12T21:10:19.750Z,5.10
2018-09-12T21:12:50.681Z,4.33
2018-09-12T21:15:21.756Z,6.80
2018-09-12T21:17:52.694Z,4.58
2018-09-12T21:20:23.668Z,4.40
2018-09-12T21:22:54.646Z,2.60
2018-09-12T21:25:25.582Z,3.60
2018-09-12T21:27:56.553Z,2.97
2018-09-12T21:30:27.517Z,3.90
2018-09-12T21:32:58.480Z,4.97
2018-09-12T21:35:29.483Z,3.27
2018-09-12T21:38:00.492Z,3.80
2018-09-12T21:40:31.784Z,3.87
2018-09-12T21:43:02.755Z,5.17
2018-09-12T21:45:33.701Z,3.43
2018-09-12T21:48:04.667Z,4.80
2018-09-12T21:50:35.614Z,2.73
2018-09-12T21:53:06.623Z,2.60
2018-09-12T21:55:37.704Z,2.60
2018-09-12T21:58:08.657Z,3.17
2018-09-12T22:00:39.604Z,3.87
2018-09-12T22:03:10.576Z,3.53
2018-09-12T22:05:41.555Z,6.73
2018-09-12T22:08:12.517Z,2.20
2018-09-12T22:10:43.468Z,3.00
2018-09-12T22:13:14.455Z,2.27
2018-09-12T22:15:45.401Z,1.30
2018-09-12T22:18:16.334Z,1.10
2018-09-12T22:20:47.280Z,1.43
2018-09-12T22:23:18.289Z,1.40
2018-09-12T22:25:49.224Z,2.33
2018-09-12T22:28:20.161Z,3.70
2018-09-12T22:30:51.146Z,2.73
2018-09-12T22:33:22.082Z,1.87
2018-09-12T22:35:53.146Z,2.47
2018-09-12T22:38:24.116Z,1.40
2018-09-12T22:40:55.089Z,1.40
2018-09-12T22:43:26.044Z,2.20
2018-09-12T22:45:57.032Z,1.50
2018-09-12T22:48:28.020Z,1.20
2018-09-12T22:50:58.977Z,1.80
2018-09-12T22:53:29.957Z,2.17
2018-09-12T22:56:00.914Z,1.20
2018-09-12T22:58:31.861Z,1.50
2018-09-12T23:01:02.926Z,1.57
2018-09-12T23:03:33.852Z,2.93
2018-09-12T23:06:04.863Z,3.20
2018-09-12T23:08:35.856Z,1.47
2018-09-12T23:11:06.773Z,1.80
2018-09-12T23:13:37.741Z,2.80
2018-09-12T23:16:08.690Z,6.33
2018-09-12T23:18:39.684Z,1.53
2018-09-12T23:21:10.649Z,2.60
2018-09-12T23:23:41.582Z,1.67
2018-09-12T23:26:12.550Z,1.93
2018-09-12T23:28:43.506Z,1.83
2018-09-12T23:31:14.459Z,5.10
2018-09-12T23:33:45.386Z,3.80
2018-09-12T23:36:16.366Z,2.40
2018-09-12T23:38:47.298Z,3.53
2018-09-12T23:41:18.240Z,1.17
2018-09-12T23:43:49.260Z,2.60
2018-09-12T23:46:20.282Z,3.17
2018-09-12T23:48:51.212Z,1.87
2018-09-12T23:51:22.160Z,1.70
2018-09-12T23:53:53.118Z,2.13
2018-09-12T23:56:24.049Z,1.63
2018-09-12T23:58:55.020Z,2.60
